Time;durP1;ratioP1;P1;durP2;ratioP2;P2;SDS_P1;SDS_P2;PMS_P1;PMS_P2;Temp;Humidity;BMP_temperature;BMP_pressure;BME280_temperature;BME280_humidity;BME280_pressure;Samples;Min_cycle;Max_cycle;Signal;HPM_P1;HPM_P2
2020/12/16 00:01:12;;;;;;;;;;;19.80;40.20;;;;;;491698;240;1115;-53
2020/12/16 00:03:14;;;;;;;;;;;19.80;40.30;;;;;;491611;240;2188;-54
2020/12/16 00:05:15;;;;;;;;;;;19.70;40.30;;;;;;491618;240;1292;-54
2020/12/16 00:07:16;;;;;;;;;;;19.70;39.10;;;;;;491798;240;1195;-53
2020/12/16 00:09:18;;;;;;;;;;;19.60;39.10;;;;;;491587;240;994;-54
2020/12/16 00:11:19;;;;;;;;;;;19.60;40.50;;;;;;491506;240;1292;-54
2020/12/16 00:13:20;;;;;;;;;;;19.60;40.60;;;;;;491588;240;1083;-53
2020/12/16 00:15:21;;;;;;;;;;;19.50;40.60;;;;;;491615;240;959;-54
2020/12/16 00:17:23;;;;;;;;;;;19.50;40.70;;;;;;491652;240;1392;-53
2020/12/16 00:19:24;;;;;;;;;;;19.40;40.80;;;;;;491654;240;986;-54
2020/12/16 00:21:25;;;;;;;;;;;19.40;40.90;;;;;;491579;240;1106;-53
2020/12/16 00:23:27;;;;;;;;;;;19.40;40.90;;;;;;491602;240;2145;-54
2020/12/16 00:25:28;;;;;;;;;;;19.30;41.00;;;;;;491566;240;1045;-54
2020/12/16 00:27:29;;;;;;;;;;;19.30;41.10;;;;;;491545;240;1180;-53
2020/12/16 00:29:30;;;;;;;;;;;19.30;39.90;;;;;;491766;240;974;-53
2020/12/16 00:31:32;;;;;;;;;;;19.30;41.20;;;;;;491682;240;1210;-53
2020/12/16 00:33:33;;;;;;;;;;;19.20;41.20;;;;;;491548;240;969;-54
2020/12/16 00:35:34;;;;;;;;;;;19.10;41.20;;;;;;491513;240;981;-54
2020/12/16 00:37:36;;;;;;;;;;;19.10;41.30;;;;;;491530;240;1181;-54
2020/12/16 00:39:37;;;;;;;;;;;19.10;41.40;;;;;;491682;240;979;-54
2020/12/16 00:41:38;;;;;;;;;;;19.10;41.40;;;;;;491536;238;1205;-53
2020/12/16 00:43:39;;;;;;;;;;;19.10;41.50;;;;;;491767;240;2156;-53
2020/12/16 00:45:41;;;;;;;;;;;19.00;41.50;;;;;;491658;240;1096;-54
2020/12/16 00:47:42;;;;;;;;;;;19.00;41.60;;;;;;491595;240;1159;-53
2020/12/16 00:49:43;;;;;;;;;;;19.00;41.60;;;;;;491635;240;1045;-54
2020/12/16 00:51:44;;;;;;;;;;;19.00;41.70;;;;;;491586;240;1342;-53
2020/12/16 00:53:46;;;;;;;;;;;18.90;41.70;;;;;;491571;240;1165;-53
2020/12/16 00:55:47;;;;;;;;;;;18.90;41.70;;;;;;491726;240;1051;-54
2020/12/16 00:57:48;;;;;;;;;;;18.90;41.70;;;;;;491599;240;1195;-54
2020/12/16 00:59:50;;;;;;;;;;;18.90;41.80;;;;;;491658;240;966;-54
2020/12/16 01:01:51;;;;;;;;;;;18.90;41.80;;;;;;491774;240;982;-54
2020/12/16 01:03:52;;;;;;;;;;;18.80;41.80;;;;;;491761;240;2141;-54
2020/12/16 01:05:53;;;;;;;;;;;18.80;41.80;;;;;;491660;240;1023;-54
2020/12/16 01:07:55;;;;;;;;;;;18.80;41.90;;;;;;491668;240;1165;-54
2020/12/16 01:09:56;;;;;;;;;;;18.80;41.90;;;;;;491725;240;1069;-53
2020/12/16 01:11:57;;;;;;;;;;;18.80;42.00;;;;;;491592;240;1190;-53
2020/12/16 01:13:58;;;;;;;;;;;18.70;41.90;;;;;;491693;240;1019;-54
2020/12/16 01:16:00;;;;;;;;;;;18.70;42.00;;;;;;491587;240;1139;-53
2020/12/16 01:18:01;;;;;;;;;;;18.70;42.00;;;;;;491545;240;1137;-53
2020/12/16 01:20:02;;;;;;;;;;;18.70;42.10;;;;;;491737;240;1220;-54
2020/12/16 01:22:04;;;;;;;;;;;18.70;42.10;;;;;;491567;240;1128;-53
2020/12/16 01:24:05;;;;;;;;;;;18.70;42.10;;;;;;491589;240;2184;-54
2020/12/16 01:26:07;;;;;;;;;;;18.70;42.20;;;;;;491594;240;1098;-54
2020/12/16 01:28:08;;;;;;;;;;;18.60;42.10;;;;;;491814;240;1062;-53
2020/12/16 01:30:09;;;;;;;;;;;18.60;42.10;;;;;;491614;240;1079;-54
2020/12/16 01:32:10;;;;;;;;;;;18.60;42.20;;;;;;491568;240;1076;-53
2020/12/16 01:34:12;;;;;;;;;;;18.60;42.20;;;;;;491847;240;1017;-53
2020/12/16 01:36:13;;;;;;;;;;;18.60;42.20;;;;;;491611;240;993;-54
2020/12/16 01:38:14;;;;;;;;;;;18.50;42.20;;;;;;491605;240;1243;-53
2020/12/16 01:40:16;;;;;;;;;;;18.50;42.20;;;;;;491591;240;1120;-53
2020/12/16 01:42:17;;;;;;;;;;;18.60;42.30;;;;;;491592;240;1034;-54
2020/12/16 01:44:18;;;;;;;;;;;18.50;41.00;;;;;;491575;240;2173;-53
2020/12/16 01:46:19;;;;;;;;;;;18.50;42.30;;;;;;491556;240;1055;-53
2020/12/16 01:48:21;;;;;;;;;;;18.50;42.30;;;;;;491588;240;1009;-54
2020/12/16 01:50:22;;;;;;;;;;;18.50;42.30;;;;;;491656;240;1059;-54
2020/12/16 01:52:24;;;;;;;;;;;18.50;42.30;;;;;;491533;240;979;-54
2020/12/16 01:54:25;;;;;;;;;;;18.50;42.40;;;;;;491646;240;941;-53
2020/12/16 01:56:26;;;;;;;;;;;18.40;42.40;;;;;;491829;240;1071;-53
2020/12/16 01:58:27;;;;;;;;;;;18.40;42.40;;;;;;491794;240;1188;-54
2020/12/16 02:00:29;;;;;;;;;;;18.40;42.40;;;;;;491552;240;1215;-54
2020/12/16 02:02:30;;;;;;;;;;;18.40;42.40;;;;;;491607;240;952;-54
2020/12/16 02:04:31;;;;;;;;;;;18.40;42.50;;;;;;491733;240;2176;-54
2020/12/16 02:06:32;;;;;;;;;;;18.40;42.50;;;;;;491595;240;975;-53
2020/12/16 02:08:34;;;;;;;;;;;18.40;42.50;;;;;;491656;240;1054;-54
2020/12/16 02:10:35;;;;;;;;;;;18.30;42.40;;;;;;491784;240;1053;-54
2020/12/16 02:12:36;;;;;;;;;;;18.40;42.50;;;;;;491605;240;1038;-53
2020/12/16 02:14:38;;;;;;;;;;;18.30;42.50;;;;;;491610;240;1168;-54
2020/12/16 02:16:39;;;;;;;;;;;18.30;42.50;;;;;;491852;240;1017;-54
2020/12/16 02:18:46;;;;;;;;;;;18.30;42.50;;;;;;491641;240;1067;-53
2020/12/16 02:20:41;;;;;;;;;;;18.30;42.60;;;;;;491515;242;1877;-54
2020/12/16 02:22:43;;;;;;;;;;;18.30;42.60;;;;;;491552;240;1156;-54
2020/12/16 02:24:44;;;;;;;;;;;18.30;42.60;;;;;;491712;240;2180;-53
2020/12/16 02:26:45;;;;;;;;;;;18.30;42.60;;;;;;491692;240;1348;-53
2020/12/16 02:28:47;;;;;;;;;;;18.20;42.60;;;;;;491666;240;1277;-53
2020/12/16 02:30:48;;;;;;;;;;;18.20;42.60;;;;;;491758;240;1158;-53
2020/12/16 02:32:49;;;;;;;;;;;18.20;42.60;;;;;;491632;240;1214;-53
2020/12/16 02:34:50;;;;;;;;;;;18.20;42.70;;;;;;491726;240;1049;-53
2020/12/16 02:36:52;;;;;;;;;;;18.20;42.70;;;;;;491855;240;1153;-53
2020/12/16 02:38:55;;;;;;;;;;;18.20;42.70;;;;;;491806;240;1173;-53
2020/12/16 02:40:56;;;;;;;;;;;18.20;42.70;;;;;;491308;242;2327;-53
2020/12/16 02:42:58;;;;;;;;;;;18.20;42.70;;;;;;491566;240;1329;-53
2020/12/16 02:44:59;;;;;;;;;;;18.20;42.80;;;;;;491612;240;2195;-53
2020/12/16 02:47:00;;;;;;;;;;;18.20;42.80;;;;;;491696;240;1107;-53
2020/12/16 02:49:02;;;;;;;;;;;18.10;42.70;;;;;;491751;240;1108;-53
2020/12/16 02:51:03;;;;;;;;;;;18.10;42.80;;;;;;491737;240;1123;-53
2020/12/16 02:53:04;;;;;;;;;;;18.10;42.80;;;;;;491654;240;949;-53
2020/12/16 02:55:06;;;;;;;;;;;18.10;42.80;;;;;;491578;240;1016;-53
2020/12/16 02:57:07;;;;;;;;;;;18.10;42.80;;;;;;491557;240;1139;-53
2020/12/16 02:59:08;;;;;;;;;;;18.10;42.80;;;;;;491610;238;1325;-53
2020/12/16 03:01:10;;;;;;;;;;;18.10;42.90;;;;;;491632;240;1059;-53
2020/12/16 03:03:11;;;;;;;;;;;18.10;42.90;;;;;;491638;240;985;-53
2020/12/16 03:05:12;;;;;;;;;;;18.00;42.90;;;;;;491553;240;2187;-53
2020/12/16 03:07:13;;;;;;;;;;;18.10;42.80;;;;;;491571;240;1240;-53
2020/12/16 03:09:15;;;;;;;;;;;18.10;42.70;;;;;;491611;240;1004;-53
2020/12/16 03:11:16;;;;;;;;;;;18.10;42.70;;;;;;491462;240;1171;-53
2020/12/16 03:13:17;;;;;;;;;;;18.20;42.60;;;;;;491597;240;1027;-53
2020/12/16 03:15:19;;;;;;;;;;;18.20;42.60;;;;;;491566;240;1663;-53
2020/12/16 03:17:20;;;;;;;;;;;18.20;42.50;;;;;;491563;240;1059;-53
2020/12/16 03:19:21;;;;;;;;;;;18.20;42.50;;;;;;491762;240;1248;-52
2020/12/16 03:21:23;;;;;;;;;;;18.20;42.40;;;;;;491573;240;1330;-53
2020/12/16 03:23:24;;;;;;;;;;;18.30;42.40;;;;;;491664;240;966;-53
2020/12/16 03:25:25;;;;;;;;;;;18.30;42.40;;;;;;491567;240;2133;-53
2020/12/16 03:27:30;;;;;;;;;;;18.30;42.30;;;;;;491672;240;1076;-53
2020/12/16 03:29:31;;;;;;;;;;;18.30;42.20;;;;;;491600;240;1197;-54
2020/12/16 03:31:32;;;;;;;;;;;18.40;42.20;;;;;;491595;240;964;-53
2020/12/16 03:33:33;;;;;;;;;;;18.40;42.20;;;;;;491660;240;1084;-53
2020/12/16 03:35:35;;;;;;;;;;;18.40;42.10;;;;;;491675;240;998;-53
2020/12/16 03:37:37;;;;;;;;;;;18.40;42.10;;;;;;491602;240;1210;-53
2020/12/16 03:39:38;;;;;;;;;;;18.50;42.10;;;;;;491620;240;978;-53
2020/12/16 03:41:40;;;;;;;;;;;18.50;42.00;;;;;;491575;240;1053;-53
2020/12/16 03:43:41;;;;;;;;;;;18.50;42.00;;;;;;491607;240;1176;-53
2020/12/16 03:45:42;;;;;;;;;;;18.50;42.00;;;;;;491611;240;2188;-53
2020/12/16 03:47:43;;;;;;;;;;;18.50;41.90;;;;;;491810;240;1009;-53
2020/12/16 03:49:45;;;;;;;;;;;18.60;41.90;;;;;;491617;240;1066;-53
2020/12/16 03:51:46;;;;;;;;;;;18.60;41.90;;;;;;491655;240;1237;-53
2020/12/16 03:53:47;;;;;;;;;;;18.60;41.80;;;;;;491624;240;1055;-53
2020/12/16 03:55:53;;;;;;;;;;;18.60;41.80;;;;;;491709;240;1064;-53
2020/12/16 03:57:50;;;;;;;;;;;18.70;41.80;;;;;;491553;241;1344;-53
2020/12/16 03:59:51;;;;;;;;;;;18.70;41.80;;;;;;491633;240;1286;-53
2020/12/16 04:01:52;;;;;;;;;;;18.70;41.70;;;;;;491599;240;1232;-53
2020/12/16 04:03:54;;;;;;;;;;;18.70;41.70;;;;;;491564;240;1013;-53
2020/12/16 04:05:55;;;;;;;;;;;18.70;41.60;;;;;;491529;240;2180;-52
2020/12/16 04:07:56;;;;;;;;;;;18.80;41.70;;;;;;491563;240;1202;-53
2020/12/16 04:09:58;;;;;;;;;;;18.80;41.60;;;;;;491655;240;1074;-53
2020/12/16 04:11:59;;;;;;;;;;;18.80;41.60;;;;;;491601;240;1114;-53
2020/12/16 04:14:00;;;;;;;;;;;18.80;41.60;;;;;;491678;240;1016;-53
2020/12/16 04:16:01;;;;;;;;;;;18.80;41.50;;;;;;491532;240;1304;-54
2020/12/16 04:18:03;;;;;;;;;;;18.80;41.50;;;;;;491600;240;1248;-52
2020/12/16 04:20:04;;;;;;;;;;;18.80;41.40;;;;;;491522;240;1118;-53
2020/12/16 04:22:05;;;;;;;;;;;18.90;41.50;;;;;;491484;240;1176;-53
2020/12/16 04:24:07;;;;;;;;;;;18.90;41.40;;;;;;491587;240;1049;-53
2020/12/16 04:26:08;;;;;;;;;;;18.90;41.40;;;;;;491470;240;2121;-53
2020/12/16 04:28:09;;;;;;;;;;;18.90;41.40;;;;;;491772;240;1060;-53
2020/12/16 04:30:10;;;;;;;;;;;18.90;41.40;;;;;;491650;240;1213;-53
2020/12/16 04:32:12;;;;;;;;;;;19.00;41.40;;;;;;491686;240;1165;-54
2020/12/16 04:34:13;;;;;;;;;;;19.00;41.30;;;;;;491869;240;1060;-54
2020/12/16 04:36:14;;;;;;;;;;;19.00;41.30;;;;;;491530;240;1301;-53
2020/12/16 04:38:15;;;;;;;;;;;19.00;41.30;;;;;;491647;240;1122;-54
2020/12/16 04:40:17;;;;;;;;;;;19.00;41.20;;;;;;491632;240;1116;-53
2020/12/16 04:42:18;;;;;;;;;;;19.00;41.20;;;;;;491593;240;1043;-53
2020/12/16 04:44:19;;;;;;;;;;;19.00;41.20;;;;;;491690;240;1005;-53
2020/12/16 04:46:21;;;;;;;;;;;19.00;41.20;;;;;;491592;240;2140;-53
2020/12/16 04:48:22;;;;;;;;;;;19.10;41.20;;;;;;491587;240;1034;-53
2020/12/16 04:50:23;;;;;;;;;;;19.10;41.20;;;;;;491534;240;1248;-53
2020/12/16 04:52:24;;;;;;;;;;;19.10;41.10;;;;;;491600;240;1398;-53
2020/12/16 04:54:28;;;;;;;;;;;19.10;41.10;;;;;;491618;240;1156;-54
2020/12/16 04:56:27;;;;;;;;;;;19.10;41.10;;;;;;491586;241;2066;-53
2020/12/16 04:58:28;;;;;;;;;;;19.10;41.10;;;;;;491594;240;967;-53
2020/12/16 05:00:29;;;;;;;;;;;19.20;41.10;;;;;;491812;240;1194;-53
2020/12/16 05:02:31;;;;;;;;;;;19.10;41.00;;;;;;491562;240;980;-53
2020/12/16 05:04:32;;;;;;;;;;;19.20;39.80;;;;;;491517;240;1211;-53
2020/12/16 05:06:34;;;;;;;;;;;19.20;41.00;;;;;;491572;240;2180;-53
2020/12/16 05:08:35;;;;;;;;;;;19.20;41.00;;;;;;491645;240;1058;-53
2020/12/16 05:10:36;;;;;;;;;;;19.20;41.00;;;;;;491665;240;1038;-53
2020/12/16 05:12:37;;;;;;;;;;;19.30;41.00;;;;;;491462;240;1232;-53
2020/12/16 05:14:39;;;;;;;;;;;19.20;41.00;;;;;;491532;240;977;-53
2020/12/16 05:16:40;;;;;;;;;;;19.30;41.00;;;;;;491527;240;1238;-53
2020/12/16 05:18:41;;;;;;;;;;;19.30;41.00;;;;;;491531;240;1030;-53
2020/12/16 05:20:43;;;;;;;;;;;19.30;40.90;;;;;;491536;240;1118;-53
2020/12/16 05:22:44;;;;;;;;;;;19.30;40.90;;;;;;491460;240;1082;-53
2020/12/16 05:24:45;;;;;;;;;;;19.30;40.90;;;;;;491442;240;2189;-53
2020/12/16 05:26:46;;;;;;;;;;;19.30;40.90;;;;;;491588;240;1310;-53
2020/12/16 05:28:49;;;;;;;;;;;19.30;40.90;;;;;;491649;240;982;-53
2020/12/16 05:30:49;;;;;;;;;;;19.30;40.80;;;;;;491496;241;2216;-53
2020/12/16 05:32:50;;;;;;;;;;;19.30;40.80;;;;;;491451;240;1143;-53
2020/12/16 05:34:52;;;;;;;;;;;19.30;40.80;;;;;;491459;240;971;-53
2020/12/16 05:36:53;;;;;;;;;;;19.40;40.80;;;;;;491636;240;1296;-53
2020/12/16 05:38:54;;;;;;;;;;;19.30;40.80;;;;;;491550;240;1092;-53
2020/12/16 05:40:55;;;;;;;;;;;19.40;40.80;;;;;;491534;240;1036;-53
2020/12/16 05:42:57;;;;;;;;;;;19.40;40.80;;;;;;491528;240;1180;-53
2020/12/16 05:44:58;;;;;;;;;;;19.40;40.80;;;;;;491537;240;2112;-53
2020/12/16 05:46:59;;;;;;;;;;;19.40;40.80;;;;;;491368;240;1233;-53
2020/12/16 05:49:00;;;;;;;;;;;19.40;40.70;;;;;;491464;240;1079;-54
2020/12/16 05:51:02;;;;;;;;;;;19.40;40.70;;;;;;491464;240;1022;-53
2020/12/16 05:53:03;;;;;;;;;;;19.40;40.70;;;;;;491553;240;1028;-53
2020/12/16 05:55:04;;;;;;;;;;;19.40;40.70;;;;;;491491;240;1048;-54
2020/12/16 05:57:07;;;;;;;;;;;19.50;40.70;;;;;;491485;240;1070;-53
2020/12/16 05:59:08;;;;;;;;;;;19.40;40.70;;;;;;491428;240;986;-54
2020/12/16 06:01:09;;;;;;;;;;;19.40;40.60;;;;;;491495;240;1212;-53
2020/12/16 06:03:11;;;;;;;;;;;19.50;40.70;;;;;;491361;240;1290;-53
2020/12/16 06:05:12;;;;;;;;;;;19.50;40.70;;;;;;491454;240;2126;-53
2020/12/16 06:07:13;;;;;;;;;;;19.50;40.60;;;;;;491466;240;1178;-53
2020/12/16 06:09:14;;;;;;;;;;;19.50;40.60;;;;;;491513;240;1003;-53
2020/12/16 06:11:16;;;;;;;;;;;19.50;40.60;;;;;;491331;240;1457;-52
2020/12/16 06:13:17;;;;;;;;;;;19.50;40.60;;;;;;491375;240;1357;-53
2020/12/16 06:15:18;;;;;;;;;;;19.50;40.60;;;;;;491343;240;1071;-53
2020/12/16 06:17:20;;;;;;;;;;;19.50;40.60;;;;;;491294;240;1213;-53
2020/12/16 06:19:21;;;;;;;;;;;19.50;40.60;;;;;;491316;240;1044;-53
2020/12/16 06:21:22;;;;;;;;;;;19.60;40.60;;;;;;491281;240;1294;-53
2020/12/16 06:23:24;;;;;;;;;;;19.60;40.60;;;;;;491339;240;1055;-53
2020/12/16 06:25:25;;;;;;;;;;;19.50;40.50;;;;;;491291;240;2120;-53
2020/12/16 06:27:26;;;;;;;;;;;19.60;40.60;;;;;;491284;240;1109;-54
2020/12/16 06:29:28;;;;;;;;;;;19.60;40.60;;;;;;491317;240;993;-53
2020/12/16 06:31:29;;;;;;;;;;;19.60;40.60;;;;;;491237;240;1168;-53
2020/12/16 06:33:30;;;;;;;;;;;19.60;40.60;;;;;;491401;240;1048;-53
2020/12/16 06:35:31;;;;;;;;;;;19.60;40.50;;;;;;491261;240;1259;-53
2020/12/16 06:37:33;;;;;;;;;;;19.60;40.50;;;;;;491308;240;1056;-53
2020/12/16 06:39:34;;;;;;;;;;;19.60;40.50;;;;;;491373;240;1022;-52
2020/12/16 06:41:35;;;;;;;;;;;19.60;40.50;;;;;;491299;240;1202;-53
2020/12/16 06:43:37;;;;;;;;;;;19.60;40.50;;;;;;491276;240;1023;-53
2020/12/16 06:45:38;;;;;;;;;;;19.60;40.50;;;;;;491188;240;2154;-53
2020/12/16 06:47:39;;;;;;;;;;;19.60;40.50;;;;;;491165;240;1191;-53
2020/12/16 06:49:41;;;;;;;;;;;19.70;40.50;;;;;;491348;240;1044;-53
2020/12/16 06:51:42;;;;;;;;;;;19.70;40.50;;;;;;491240;240;1057;-53
2020/12/16 06:53:43;;;;;;;;;;;19.80;40.30;;;;;;491243;240;1058;-53
2020/12/16 06:55:44;;;;;;;;;;;19.80;40.20;;;;;;491267;240;1050;-53
2020/12/16 06:57:45;;;;;;;;;;;19.80;40.30;;;;;;491274;240;1238;-53
2020/12/16 06:59:47;;;;;;;;;;;19.70;40.30;;;;;;491232;240;1051;-53
2020/12/16 07:01:48;;;;;;;;;;;19.70;40.50;;;;;;491278;240;1242;-53
2020/12/16 07:03:49;;;;;;;;;;;19.60;40.60;;;;;;491312;240;1053;-53
2020/12/16 07:05:51;;;;;;;;;;;19.50;40.70;;;;;;491220;240;2196;-53
2020/12/16 07:07:52;;;;;;;;;;;19.40;40.80;;;;;;491078;240;1064;-53
2020/12/16 07:09:53;;;;;;;;;;;19.40;41.00;;;;;;491108;240;1070;-53
2020/12/16 07:11:54;;;;;;;;;;;19.30;41.00;;;;;;491138;240;1006;-53
2020/12/16 07:13:56;;;;;;;;;;;19.30;41.10;;;;;;491166;240;1044;-53
2020/12/16 07:15:57;;;;;;;;;;;19.20;41.20;;;;;;491225;240;1230;-53
2020/12/16 07:17:58;;;;;;;;;;;19.20;41.30;;;;;;491240;240;1189;-53
2020/12/16 07:19:59;;;;;;;;;;;19.20;41.40;;;;;;491216;240;1088;-53
2020/12/16 07:22:01;;;;;;;;;;;19.10;41.50;;;;;;491257;240;1053;-53
2020/12/16 07:24:02;;;;;;;;;;;19.10;41.60;;;;;;491280;240;1068;-53
2020/12/16 07:26:03;;;;;;;;;;;19.00;41.70;;;;;;491223;240;2192;-53
2020/12/16 07:28:05;;;;;;;;;;;19.00;40.50;;;;;;491122;240;1095;-53
2020/12/16 07:30:06;;;;;;;;;;;19.00;41.80;;;;;;491050;240;1097;-52
2020/12/16 07:32:07;;;;;;;;;;;18.90;41.80;;;;;;491201;240;1279;-53
2020/12/16 07:34:09;;;;;;;;;;;18.90;41.90;;;;;;491332;240;1120;-52
2020/12/16 07:36:10;;;;;;;;;;;18.90;42.00;;;;;;491253;240;1087;-53
2020/12/16 07:38:11;;;;;;;;;;;18.80;40.80;;;;;;490974;240;1251;-53
2020/12/16 07:40:14;;;;;;;;;;;18.80;42.10;;;;;;491034;240;1162;-53
2020/12/16 07:42:14;;;;;;;;;;;18.80;42.20;;;;;;491020;240;2335;-53
2020/12/16 07:44:15;;;;;;;;;;;18.70;42.20;;;;;;491125;240;1151;-53
2020/12/16 07:46:16;;;;;;;;;;;18.70;42.20;;;;;;491137;240;2188;-53
2020/12/16 07:48:18;;;;;;;;;;;18.70;42.30;;;;;;491016;240;1204;-52
2020/12/16 07:50:19;;;;;;;;;;;18.60;42.30;;;;;;491130;240;1207;-53
2020/12/16 07:52:20;;;;;;;;;;;18.60;42.40;;;;;;491099;240;1287;-53
2020/12/16 07:54:22;;;;;;;;;;;18.60;42.40;;;;;;491009;240;1198;-53
2020/12/16 07:56:23;;;;;;;;;;;18.50;42.50;;;;;;490981;240;1279;-53
2020/12/16 07:58:24;;;;;;;;;;;18.50;42.50;;;;;;491011;240;1024;-53
2020/12/16 08:00:26;;;;;;;;;;;18.40;41.30;;;;;;491008;240;1079;-52
2020/12/16 08:02:27;;;;;;;;;;;18.40;42.60;;;;;;490976;240;1406;-53
2020/12/16 08:04:28;;;;;;;;;;;18.40;42.60;;;;;;491084;240;1023;-53
2020/12/16 08:06:30;;;;;;;;;;;18.40;42.60;;;;;;491047;240;2136;-53
2020/12/16 08:08:31;;;;;;;;;;;18.40;42.70;;;;;;491014;240;1209;-53
2020/12/16 08:10:32;;;;;;;;;;;18.40;42.70;;;;;;491021;240;1382;-53
2020/12/16 08:12:34;;;;;;;;;;;18.30;42.70;;;;;;491114;240;1114;-53
2020/12/16 08:14:35;;;;;;;;;;;18.30;42.70;;;;;;490995;240;1052;-53
2020/12/16 08:16:36;;;;;;;;;;;18.30;42.80;;;;;;490924;240;1164;-53
2020/12/16 08:18:38;;;;;;;;;;;18.30;42.80;;;;;;490885;240;1159;-53
2020/12/16 08:20:41;;;;;;;;;;;18.30;42.90;;;;;;490917;240;1044;-53
2020/12/16 08:22:41;;;;;;;;;;;18.30;42.90;;;;;;490953;241;1843;-52
2020/12/16 08:24:42;;;;;;;;;;;18.30;42.90;;;;;;490988;240;1056;-53
2020/12/16 08:26:44;;;;;;;;;;;18.20;41.60;;;;;;490951;240;2184;-53
2020/12/16 08:28:45;;;;;;;;;;;18.20;43.00;;;;;;490980;240;1078;-53
2020/12/16 08:30:46;;;;;;;;;;;18.20;43.00;;;;;;490989;240;1150;-53
2020/12/16 08:32:48;;;;;;;;;;;18.20;43.00;;;;;;490967;240;1293;-53
2020/12/16 08:34:49;;;;;;;;;;;18.20;43.10;;;;;;490913;240;1151;-53
2020/12/16 08:36:50;;;;;;;;;;;18.10;43.00;;;;;;490827;240;1057;-53
2020/12/16 08:38:51;;;;;;;;;;;18.10;43.00;;;;;;490873;240;1194;-53
2020/12/16 08:40:53;;;;;;;;;;;18.10;43.10;;;;;;490906;240;1194;-53
2020/12/16 08:42:54;;;;;;;;;;;18.10;43.10;;;;;;490935;240;1063;-53
2020/12/16 08:44:55;;;;;;;;;;;18.10;43.10;;;;;;490992;240;1234;-53
2020/12/16 08:46:57;;;;;;;;;;;18.10;43.10;;;;;;490976;240;2179;-53
2020/12/16 08:48:59;;;;;;;;;;;18.10;43.10;;;;;;491091;240;1463;-53
2020/12/16 08:50:59;;;;;;;;;;;18.00;43.10;;;;;;491056;240;1756;-53
2020/12/16 08:53:01;;;;;;;;;;;18.10;43.10;;;;;;491097;240;1150;-53
2020/12/16 08:55:02;;;;;;;;;;;18.10;43.00;;;;;;491006;240;1216;-53
2020/12/16 08:57:03;;;;;;;;;;;18.20;42.90;;;;;;491009;240;1061;-53
2020/12/16 08:59:04;;;;;;;;;;;18.20;42.90;;;;;;490998;240;1226;-53
2020/12/16 09:01:09;;;;;;;;;;;18.20;42.80;;;;;;491009;240;1079;-53
2020/12/16 09:03:07;;;;;;;;;;;18.20;42.70;;;;;;490894;241;1304;-53
2020/12/16 09:05:08;;;;;;;;;;;18.30;42.70;;;;;;490883;240;1166;-53
2020/12/16 09:07:10;;;;;;;;;;;18.30;41.30;;;;;;490897;240;2121;-53
2020/12/16 09:09:11;;;;;;;;;;;18.30;42.60;;;;;;490895;240;1300;-53
2020/12/16 09:11:12;;;;;;;;;;;18.30;41.20;;;;;;490915;240;1047;-53
2020/12/16 09:13:13;;;;;;;;;;;18.40;42.50;;;;;;490969;240;1033;-53
2020/12/16 09:15:15;;;;;;;;;;;18.40;42.40;;;;;;491020;240;1075;-53
2020/12/16 09:17:16;;;;;;;;;;;18.40;42.40;;;;;;490956;240;1064;-53
2020/12/16 09:19:17;;;;;;;;;;;18.40;42.30;;;;;;490833;240;1172;-54
2020/12/16 09:21:19;;;;;;;;;;;18.50;42.30;;;;;;490894;240;1493;-53
2020/12/16 09:23:20;;;;;;;;;;;18.50;42.30;;;;;;491053;240;1072;-53
2020/12/16 09:25:21;;;;;;;;;;;18.50;42.20;;;;;;490973;240;1290;-53
2020/12/16 09:27:22;;;;;;;;;;;18.50;42.20;;;;;;490855;240;2187;-53
2020/12/16 09:29:24;;;;;;;;;;;18.50;42.10;;;;;;490973;240;1225;-53
2020/12/16 09:31:25;;;;;;;;;;;18.60;42.10;;;;;;490937;240;1067;-53
2020/12/16 09:33:27;;;;;;;;;;;18.60;42.10;;;;;;490824;240;1204;-53
2020/12/16 09:35:28;;;;;;;;;;;18.60;42.00;;;;;;490819;240;1117;-53
2020/12/16 09:37:29;;;;;;;;;;;18.70;42.00;;;;;;490969;240;1019;-53
2020/12/16 09:39:30;;;;;;;;;;;18.70;42.00;;;;;;491006;240;1164;-53
2020/12/16 09:41:32;;;;;;;;;;;18.70;41.90;;;;;;490792;240;1199;-53
2020/12/16 09:43:33;;;;;;;;;;;18.70;41.90;;;;;;490995;240;1054;-53
2020/12/16 09:45:34;;;;;;;;;;;18.70;41.80;;;;;;491004;240;1092;-53
2020/12/16 09:47:35;;;;;;;;;;;18.80;41.80;;;;;;490991;240;2169;-53
2020/12/16 09:49:37;;;;;;;;;;;18.80;41.80;;;;;;491038;240;1200;-53
2020/12/16 09:51:38;;;;;;;;;;;18.80;41.70;;;;;;491002;240;1332;-53
2020/12/16 09:53:39;;;;;;;;;;;18.80;41.70;;;;;;490886;240;1204;-53
2020/12/16 09:55:41;;;;;;;;;;;18.80;41.70;;;;;;490869;240;1082;-53
2020/12/16 09:57:42;;;;;;;;;;;18.80;41.60;;;;;;490990;240;2165;-53
2020/12/16 09:59:43;;;;;;;;;;;18.90;41.60;;;;;;490993;240;1073;-53
2020/12/16 10:01:45;;;;;;;;;;;18.90;41.60;;;;;;490975;240;1219;-53
2020/12/16 10:03:46;;;;;;;;;;;18.90;40.30;;;;;;491036;240;1157;-53
2020/12/16 10:05:48;;;;;;;;;;;18.90;41.50;;;;;;491071;240;1068;-54
2020/12/16 10:07:49;;;;;;;;;;;18.90;41.50;;;;;;490952;240;2141;-53
2020/12/16 10:09:54;;;;;;;;;;;19.00;40.20;;;;;;490780;240;1240;-53
2020/12/16 10:11:55;;;;;;;;;;;19.00;41.40;;;;;;490952;242;1371;-53
2020/12/16 10:13:57;;;;;;;;;;;19.00;41.40;;;;;;490934;240;1181;-53
2020/12/16 10:15:58;;;;;;;;;;;19.00;41.40;;;;;;491087;240;1229;-53
2020/12/16 10:17:59;;;;;;;;;;;19.00;41.30;;;;;;490975;240;1208;-53
2020/12/16 10:20:02;;;;;;;;;;;19.00;41.30;;;;;;490986;240;1290;-53
2020/12/16 10:22:02;;;;;;;;;;;19.10;40.00;;;;;;490990;241;2088;-53
2020/12/16 10:24:03;;;;;;;;;;;19.10;41.30;;;;;;490938;240;1142;-53
2020/12/16 10:26:04;;;;;;;;;;;19.10;41.30;;;;;;490962;240;1393;-53
2020/12/16 10:28:10;;;;;;;;;;;19.10;41.20;;;;;;490735;240;2183;-53
2020/12/16 10:30:07;;;;;;;;;;;19.10;41.20;;;;;;490695;241;2065;-53
2020/12/16 10:32:09;;;;;;;;;;;19.20;41.20;;;;;;490780;240;1074;-53
2020/12/16 10:34:10;;;;;;;;;;;19.10;41.10;;;;;;490772;240;1200;-53
2020/12/16 10:36:11;;;;;;;;;;;19.20;41.20;;;;;;490796;240;1093;-53
2020/12/16 10:38:13;;;;;;;;;;;19.20;41.10;;;;;;490902;240;1114;-53
2020/12/16 10:40:14;;;;;;;;;;;19.20;41.10;;;;;;490884;240;1119;-53
2020/12/16 10:42:15;;;;;;;;;;;19.20;41.10;;;;;;490855;240;1241;-52
2020/12/16 10:44:16;;;;;;;;;;;19.20;41.10;;;;;;490832;240;1081;-53
2020/12/16 10:46:18;;;;;;;;;;;19.20;41.10;;;;;;490849;240;1114;-53
2020/12/16 10:48:19;;;;;;;;;;;19.20;41.00;;;;;;490774;240;2176;-53
2020/12/16 10:50:20;;;;;;;;;;;19.30;41.10;;;;;;490831;240;1177;-53
2020/12/16 10:52:21;;;;;;;;;;;19.30;39.70;;;;;;490842;240;1057;-53
2020/12/16 10:54:23;;;;;;;;;;;19.30;41.00;;;;;;490851;240;1094;-53
2020/12/16 10:56:24;;;;;;;;;;;19.30;39.70;;;;;;490802;240;1108;-53
2020/12/16 10:58:25;;;;;;;;;;;19.30;41.00;;;;;;490754;240;1057;-53
2020/12/16 11:00:27;;;;;;;;;;;19.30;39.70;;;;;;490774;240;1070;-53
2020/12/16 11:02:28;;;;;;;;;;;19.30;40.90;;;;;;490873;240;1183;-53
2020/12/16 11:04:30;;;;;;;;;;;19.30;40.90;;;;;;490882;240;1330;-53
2020/12/16 11:06:30;;;;;;;;;;;19.30;39.60;;;;;;490889;240;2021;-53
2020/12/16 11:08:32;;;;;;;;;;;19.40;40.90;;;;;;490866;240;2113;-53
2020/12/16 11:10:33;;;;;;;;;;;19.40;40.90;;;;;;490938;240;1020;-53
2020/12/16 11:12:35;;;;;;;;;;;19.40;39.60;;;;;;490861;240;1036;-53
2020/12/16 11:14:36;;;;;;;;;;;19.40;40.90;;;;;;490814;240;1022;-53
2020/12/16 11:16:37;;;;;;;;;;;19.40;40.80;;;;;;490827;240;1054;-53
2020/12/16 11:18:38;;;;;;;;;;;19.40;40.80;;;;;;491019;240;1123;-53
2020/12/16 11:20:40;;;;;;;;;;;19.40;40.80;;;;;;490951;240;1201;-53
2020/12/16 11:22:41;;;;;;;;;;;19.50;40.80;;;;;;490861;240;1030;-53
2020/12/16 11:24:42;;;;;;;;;;;19.50;40.80;;;;;;491047;240;1048;-53
2020/12/16 11:26:44;;;;;;;;;;;19.50;40.80;;;;;;490967;240;1058;-54
2020/12/16 11:28:45;;;;;;;;;;;19.50;40.80;;;;;;490964;240;1064;-54
2020/12/16 11:30:46;;;;;;;;;;;19.50;40.70;;;;;;491018;240;1066;-53
2020/12/16 11:32:47;;;;;;;;;;;19.50;40.70;;;;;;490924;240;1057;-53
2020/12/16 11:34:49;;;;;;;;;;;19.50;40.70;;;;;;490978;240;1147;-53
2020/12/16 11:36:50;;;;;;;;;;;19.50;40.70;;;;;;490809;240;1069;-53
2020/12/16 11:38:51;;;;;;;;;;;19.60;39.40;;;;;;490703;240;1220;-53
2020/12/16 11:40:53;;;;;;;;;;;19.50;40.70;;;;;;490818;240;1091;-53
2020/12/16 11:42:54;;;;;;;;;;;19.50;40.70;;;;;;490995;240;1170;-53
2020/12/16 11:44:55;;;;;;;;;;;19.60;40.70;;;;;;491119;240;1057;-53
2020/12/16 11:46:58;;;;;;;;;;;19.60;40.70;;;;;;490963;240;2187;-53
2020/12/16 11:48:59;;;;;;;;;;;19.60;40.70;;;;;;490869;240;1111;-53
2020/12/16 11:51:00;;;;;;;;;;;19.60;40.70;;;;;;490698;240;1206;-53
2020/12/16 11:53:02;;;;;;;;;;;19.60;40.70;;;;;;491004;240;1079;-53
2020/12/16 11:55:03;;;;;;;;;;;19.60;39.30;;;;;;490909;240;1250;-53
2020/12/16 11:57:05;;;;;;;;;;;19.60;40.60;;;;;;490962;240;1080;-53